CheckWX is a tool to help pilots better visualize weather data.  It is not intended as a substitute for an official pre-flight weather briefing.

05:51:10 UTC

KBWI METAR
Baltimore / Washington International Thurgood Marshall Airport
Baltimore, Maryland, USA
Current

41 mins ago

KBWI 290510Z 17005KT 10SM SCT008 OVC015 23/22 A3003 RMK AO2 T02330217
Observed
May-29 @ 05:10 UTC
Wind
  • 170° at 5 KTS
Visibility
Flight Rules
MVFR
Cloud Levels
  • Scattered at 800' AGL
  • Overcast at 1,500' AGL
Temperature
23°C / 73°F
Dewpoint
22°C / 72°F
Humidity
94%
Altimeter
30.03" Hg
Pressure
1016.92 hPa
Previous

57 mins ago

KBWI 290454Z 18003KT 10SM FEW008 OVC014 23/22 A3003 RMK AO2 SLP168 T02280217 402610217
Observed
May-29 @ 04:54 UTC
Wind
  • 180° at 3 KTS
Visibility
Flight Rules
MVFR
Cloud Levels
  • Few at 800' AGL
  • Overcast at 1,400' AGL
Dewpoint
22°C / 72°F
Humidity
94%
Altimeter
30.03" Hg
Pressure
1016.92 hPa
Previous

1 hour ago

KBWI 290437Z 15003KT 10SM FEW008 OVC014 23/22 A3003 RMK AO2 T02280217
Observed
May-29 @ 04:37 UTC
Wind
  • 150° at 3 KTS
Visibility
Flight Rules
MVFR
Cloud Levels
  • Few at 800' AGL
  • Overcast at 1,400' AGL
Temperature
23°C / 73°F
Dewpoint
22°C / 72°F
Humidity
94%
Altimeter
30.03" Hg
Pressure
1016.92 hPa